Pagina principale
METAR-TAF:

METAR-TAF

Aeroporti :

Base aerea di Aviano

Aviano, Italia

latitudine: 46-02N, longitudine: 012-36E, altezza: 128 m

Osservazione

Il bollettino è stato emesso 55 minuti fa, alle 13:55 UTC
Vento 3 kt da est/nord-est
Temperature 12°C
Umidità 62%
Pressione 1014 hPa
Visibilità 10 km o più
Poco nuvoloso ad un'altezza di 3500 ft

METAR: LIPA 061355Z 07003KT 9999 FEW035 12/05 Q1014 RMK FEW VIS MIN 9999 WIND THR05 /////KT WIND THR23 /////KT A2996 BLU

Ora: 15:50 (14:50 UTC)

Previsione

Il bollettino è stato emesso 50 minuti fa, alle 14:00 UTC
Previsione valida dal 06 alle 15 UTC al 06 alle 24 UTC
Vento 3 kt da direzioni variabili
Visibilità 10 km o più
nessuna nube inferiore a 1500 m e nessun cumulonembo

TAF: LIPA 061400Z 0615/0624 VRB03KT CAVOK

Osservazioni e previsioni meteorologiche di più di 4000 aeroporti (messaggi METAR e TAF).

Le stazioni disponibili sono rappresentate dai dischi gialli e rossi sulla carta.

Puntare il mouse per vedere il nome della stazione.

Clicca sopra per visualizzare le osservazioni e previsioni meteorologiche.

Per cambiare la mappa : fare clic sui pulsanti verdi con una croce nera per ingrandire, il pulsante verde con un trattino per diminuire, o sulla freccia verde per le mappe adiacenti.


METAR-TAF: